Time;durP1;ratioP1;P1;durP2;ratioP2;P2;SDS_P1;SDS_P2;PMS_P1;PMS_P2;Temp;Humidity;BMP_temperature;BMP_pressure;BME280_temperature;BME280_humidity;BME280_pressure;Samples;Min_cycle;Max_cycle;Signal;HPM_P1;HPM_P2
2023/10/17 00:01:34;;;;;;;12.32;8.10;;;;;;;7.13;100.00;101972.50;5050649;28;20237;-76
2023/10/17 00:06:58;;;;;;;11.35;8.15;;;;;;;7.09;100.00;101967.44;5042500;28;20076;-76
2023/10/17 00:09:24;;;;;;;14.57;8.30;;;;;;;7.09;100.00;101964.84;5050157;28;20036;-76
2023/10/17 00:14:24;;;;;;;11.00;8.13;;;;;;;7.08;100.00;101963.13;5032127;28;20029;-76
2023/10/17 00:16:50;;;;;;;12.70;8.45;;;;;;;7.03;100.00;101950.25;5030326;28;20026;-76
2023/10/17 00:19:18;;;;;;;14.68;8.65;;;;;;;7.02;100.00;101958.16;5031730;28;20048;-76
2023/10/17 00:21:43;;;;;;;10.98;7.45;;;;;;;7.03;100.00;101959.84;5030737;28;20079;-76
2023/10/17 00:24:09;;;;;;;9.88;7.78;;;;;;;7.01;100.00;101956.44;5030783;28;20025;-76
2023/10/17 00:26:39;;;;;;;13.30;8.60;;;;;;;7.01;100.00;101951.22;5030805;28;20027;-78
2023/10/17 00:29:07;;;;;;;13.63;7.97;;;;;;;7.03;100.00;101952.00;5049922;28;20112;-79
2023/10/17 00:31:35;;;;;;;14.07;8.20;;;;;;;7.00;100.00;101944.28;5030921;28;20025;-76
2023/10/17 00:34:01;;;;;;;10.88;8.35;;;;;;;6.99;100.00;101939.97;5028400;28;20036;-76
2023/10/17 00:36:27;;;;;;;11.82;8.23;;;;;;;6.97;100.00;101939.19;5030454;28;20014;-77
2023/10/17 00:39:08;;;;;;;12.23;8.05;;;;;;;7.00;100.00;101933.81;5029174;28;20017;-76
2023/10/17 00:42:09;;;;;;;12.20;8.05;;;;;;;6.96;100.00;101929.63;5030257;28;20028;-76
2023/10/17 00:44:44;;;;;;;12.27;8.00;;;;;;;6.93;100.00;101935.00;5029616;28;20098;-76
2023/10/17 00:47:22;;;;;;;16.55;8.60;;;;;;;6.90;100.00;101925.50;5039254;28;20041;-76
2023/10/17 00:49:49;;;;;;;15.65;8.90;;;;;;;6.93;100.00;101932.38;5029837;28;20032;-76
2023/10/17 00:52:49;;;;;;;11.18;7.85;;;;;;;6.95;100.00;101941.00;5031079;28;20075;-76
2023/10/17 00:55:15;;;;;;;13.32;9.07;;;;;;;6.91;100.00;101935.91;5035827;28;20036;-76
2023/10/17 00:57:40;;;;;;;15.60;9.43;;;;;;;6.88;100.00;101941.28;5048112;28;20036;-76
2023/10/17 01:00:23;;;;;;;13.75;9.73;;;;;;;6.90;100.00;101936.81;5049093;28;20025;-77
2023/10/17 01:02:51;;;;;;;12.40;9.77;;;;;;;6.90;100.00;101934.22;5047230;28;20024;-76
2023/10/17 01:05:17;;;;;;;14.15;9.85;;;;;;;6.90;100.00;101936.81;5054231;28;20040;-76
2023/10/17 01:07:43;;;;;;;14.02;10.43;;;;;;;6.90;100.00;101936.81;5032606;28;20112;-77
2023/10/17 01:10:17;;;;;;;15.50;10.20;;;;;;;6.91;100.00;101946.38;5059254;28;20391;-76
2023/10/17 01:13:00;;;;;;;14.65;10.57;;;;;;;6.92;100.00;101942.00;5051775;28;20029;-76
2023/10/17 01:15:28;;;;;;;16.45;10.23;;;;;;;6.91;100.00;101949.00;5053500;28;20892;-77
2023/10/17 01:17:57;;;;;;;12.85;10.27;;;;;;;6.92;100.00;101947.22;5053264;28;20025;-76
2023/10/17 01:20:23;;;;;;;18.02;10.48;;;;;;;6.90;100.00;101944.66;5052095;28;20025;-76
2023/10/17 01:22:48;;;;;;;13.95;9.55;;;;;;;6.93;100.00;101948.06;5045501;28;20025;-77
2023/10/17 01:25:27;;;;;;;15.40;9.55;;;;;;;6.91;100.00;101938.53;5032396;28;20116;-77
2023/10/17 01:27:54;;;;;;;14.25;9.82;;;;;;;6.93;100.00;101933.22;5032693;28;20029;-77
2023/10/17 01:30:20;;;;;;;14.40;10.07;;;;;;;6.93;100.00;101924.53;5033063;28;20494;-77
2023/10/17 01:32:48;;;;;;;14.50;10.30;;;;;;;6.90;100.00;101923.75;5031869;28;20029;-77
2023/10/17 01:35:13;;;;;;;13.93;10.00;;;;;;;6.89;100.00;101915.97;5033575;28;20422;-77
2023/10/17 01:37:40;;;;;;;12.93;9.73;;;;;;;6.89;100.00;101922.03;5032027;28;20022;-77
2023/10/17 01:40:22;;;;;;;12.35;9.40;;;;;;;6.87;100.00;101926.50;5040277;28;20505;-77
2023/10/17 01:42:48;;;;;;;12.02;9.23;;;;;;;6.86;100.00;101927.41;5033049;28;20024;-77
2023/10/17 01:45:15;;;;;;;12.57;8.98;;;;;;;6.87;100.00;101926.50;5031631;28;20025;-77
2023/10/17 01:47:40;;;;;;;14.85;9.68;;;;;;;6.84;100.00;101921.38;5043172;28;20108;-77
2023/10/17 01:50:10;;;;;;;14.32;9.30;;;;;;;6.83;100.00;101916.22;5036284;28;20025;-77
2023/10/17 01:52:37;;;;;;;13.38;9.68;;;;;;;6.83;100.00;101906.59;5050240;28;20055;-77
2023/10/17 01:55:10;;;;;;;12.52;9.43;;;;;;;6.80;100.00;101904.09;5052520;28;20501;-77
2023/10/17 01:57:40;;;;;;;12.18;9.43;;;;;;;6.79;100.00;101902.38;5050157;28;20021;-78
2023/10/17 02:00:16;;;;;;;16.05;10.15;;;;;;;6.78;100.00;101902.44;5052601;28;20032;-76
2023/10/17 02:02:42;;;;;;;13.65;9.20;;;;;;;6.77;100.00;101903.38;5052458;28;20489;-79
2023/10/17 02:05:12;;;;;;;16.13;10.07;;;;;;;6.75;100.00;101884.28;5049798;28;20543;-76
2023/10/17 02:07:38;;;;;;;13.38;9.85;;;;;;;6.76;100.00;101883.34;5035064;28;20026;-79
2023/10/17 02:10:07;;;;;;;16.33;9.80;;;;;;;6.73;100.00;101886.94;5043089;28;20048;-76
2023/10/17 02:12:33;;;;;;;14.60;10.02;;;;;;;6.72;100.00;101873.94;5051528;28;20021;-76
2023/10/17 02:15:00;;;;;;;13.82;9.43;;;;;;;6.69;100.00;101872.31;5051109;28;20074;-76
2023/10/17 02:17:26;;;;;;;13.27;10.25;;;;;;;6.69;100.00;101872.31;5052420;28;20423;-78
2023/10/17 02:19:53;;;;;;;14.50;9.82;;;;;;;6.68;100.00;101869.75;5051289;28;20126;-78
2023/10/17 02:22:18;;;;;;;13.00;10.05;;;;;;;6.68;100.00;101865.38;5050520;28;20025;-76
2023/10/17 02:24:44;;;;;;;12.45;9.70;;;;;;;6.67;100.00;101863.66;5049383;28;20040;-76
2023/10/17 02:27:12;;;;;;;12.90;10.07;;;;;;;6.66;100.00;101861.97;5032452;28;20095;-77
2023/10/17 02:29:44;;;;;;;14.18;10.20;;;;;;;6.67;100.00;101862.81;5033588;28;20037;-78
2023/10/17 02:32:12;;;;;;;16.38;10.55;;;;;;;6.65;100.00;101875.97;5031632;28;20080;-76
2023/10/17 02:34:38;;;;;;;17.10;10.93;;;;;;;6.67;100.00;101878.50;5031536;28;20399;-76
2023/10/17 02:37:06;;;;;;;14.77;10.57;;;;;;;6.63;100.00;101875.16;5032907;28;20032;-79
2023/10/17 02:39:31;;;;;;;16.83;10.68;;;;;;;6.65;100.00;101880.34;5047760;28;20025;-76
2023/10/17 02:42:08;;;;;;;14.57;10.18;;;;;;;6.65;100.00;101881.19;5034299;28;20104;-76
2023/10/17 02:44:43;;;;;;;15.23;10.38;;;;;;;6.66;100.00;101877.66;5047958;28;20025;-78
2023/10/17 02:47:12;;;;;;;16.35;10.88;;;;;;;6.66;100.00;101888.13;5050018;28;20518;-76
2023/10/17 02:49:39;;;;;;;18.13;10.95;;;;;;;6.62;100.00;101886.53;5051280;28;20028;-76
2023/10/17 02:52:05;;;;;;;13.38;10.13;;;;;;;6.63;100.00;101884.78;5052099;28;20033;-76
2023/10/17 02:54:43;;;;;;;14.90;10.60;;;;;;;6.61;100.00;101884.84;5051772;28;20509;-76
2023/10/17 02:57:09;;;;;;;16.45;10.73;;;;;;;6.66;100.00;101871.56;5050903;28;20114;-76
2023/10/17 02:59:35;;;;;;;14.60;10.38;;;;;;;6.59;100.00;101869.22;5048815;28;20517;-76
2023/10/17 03:02:05;;;;;;;15.93;10.77;;;;;;;6.59;100.00;101866.59;5031750;28;20021;-76
2023/10/17 03:04:31;;;;;;;16.10;10.93;;;;;;;6.58;100.00;101864.06;5031080;28;20028;-76
2023/10/17 03:06:59;;;;;;;17.30;11.80;;;;;;;6.53;100.00;101859.03;5045499;28;20041;-78
2023/10/17 03:09:36;;;;;;;18.50;11.52;;;;;;;6.53;100.00;101860.78;5034097;28;20025;-76
2023/10/17 03:17:10;;;;;;;20.60;11.65;;;;;;;6.51;100.00;101868.69;5050238;28;20079;-76
2023/10/17 03:19:37;;;;;;;15.63;11.70;;;;;;;6.48;100.00;101867.97;5046744;28;20025;-76
2023/10/17 03:22:24;;;;;;;15.98;12.00;;;;;;;6.47;100.00;101864.50;5030866;28;20112;-76
2023/10/17 03:24:51;;;;;;;18.15;12.10;;;;;;;6.48;100.00;101860.97;5044803;28;20025;-76
2023/10/17 03:27:26;;;;;;;17.08;12.85;;;;;;;6.46;100.00;101864.56;5029746;28;20505;-76
2023/10/17 03:29:52;;;;;;;13.80;11.88;;;;;;;6.46;100.00;101869.78;5047248;28;20479;-76
2023/10/17 03:32:17;;;;;;;16.45;12.70;;;;;;;6.45;100.00;101875.94;5030308;28;20021;-76
2023/10/17 03:34:52;;;;;;;23.63;14.35;;;;;;;6.45;100.00;101883.78;5028686;28;20028;-76
2023/10/17 03:39:53;;;;;;;16.02;12.52;;;;;;;6.50;100.00;101881.81;5034613;28;20112;-76
2023/10/17 03:42:41;;;;;;;16.27;12.70;;;;;;;6.52;100.00;101877.38;5031386;28;20049;-78
2023/10/17 03:48:13;;;;;;;18.98;13.10;;;;;;;6.50;100.00;101877.44;5012999;28;20041;-76
2023/10/17 03:55:52;;;;;;;20.00;13.40;;;;;;;6.46;100.00;101875.88;5050558;28;20044;-78
2023/10/17 03:58:25;;;;;;;19.67;13.85;;;;;;;6.46;100.00;101888.94;5048873;28;20025;-76
2023/10/17 04:00:52;;;;;;;20.30;14.43;;;;;;;6.50;100.00;101887.06;5050382;28;20059;-79
2023/10/17 04:03:21;;;;;;;18.90;14.18;;;;;;;6.47;100.00;101881.94;5051022;28;20025;-76
2023/10/17 04:06:18;;;;;;;19.98;14.63;;;;;;;6.47;100.00;101881.94;5051091;28;20029;-76
2023/10/17 04:08:48;;;;;;;19.73;14.15;;;;;;;6.46;100.00;101877.63;5047701;28;20025;-76
2023/10/17 04:11:18;;;;;;;18.02;14.45;;;;;;;6.44;100.00;101882.06;5032748;28;20018;-76
2023/10/17 04:13:50;;;;;;;20.58;15.43;;;;;;;6.43;100.00;101875.16;5029022;28;20115;-76
2023/10/17 04:16:21;;;;;;;19.48;15.90;;;;;;;6.43;100.00;101878.63;5030800;28;20030;-76
2023/10/17 04:18:48;;;;;;;26.20;15.68;;;;;;;6.42;100.00;101873.44;5029622;28;20025;-76
2023/10/17 04:21:18;;;;;;;24.92;15.95;;;;;;;6.40;100.00;101878.69;5029795;28;20416;-76
2023/10/17 04:23:44;;;;;;;28.42;16.27;;;;;;;6.42;100.00;101883.91;5044406;28;20075;-76
2023/10/17 04:26:17;;;;;;;22.92;16.75;;;;;;;6.42;100.00;101889.13;5028299;28;20434;-76
2023/10/17 04:28:49;;;;;;;23.00;16.23;;;;;;;6.43;100.00;101888.22;5033002;28;20560;-76
2023/10/17 04:31:22;;;;;;;21.92;17.33;;;;;;;6.40;100.00;101888.31;5029719;28;20119;-76
2023/10/17 04:33:48;;;;;;;20.00;16.27;;;;;;;6.43;100.00;101885.59;5029420;28;20029;-76
2023/10/17 04:36:15;;;;;;;22.90;16.98;;;;;;;6.40;100.00;101880.47;5030425;28;20033;-76
2023/10/17 04:38:42;;;;;;;24.08;17.33;;;;;;;6.40;100.00;101890.91;5028810;28;20021;-76
2023/10/17 04:43:44;;;;;;;26.33;17.42;;;;;;;6.39;100.00;101889.22;5030035;28;20033;-76
2023/10/17 04:46:09;;;;;;;20.73;16.80;;;;;;;6.39;100.00;101889.22;5029077;28;20045;-77
2023/10/17 04:48:36;;;;;;;24.08;17.48;;;;;;;6.38;100.00;101893.59;5033945;28;20037;-77
2023/10/17 04:51:21;;;;;;;29.98;17.73;;;;;;;6.39;100.00;101884.84;5029979;28;20049;-77
2023/10/17 04:53:50;;;;;;;26.15;16.92;;;;;;;6.36;100.00;101882.34;5041229;28;20056;-77
2023/10/17 04:56:22;;;;;;;20.83;16.35;;;;;;;6.40;100.00;101883.06;5048638;28;20068;-77
2023/10/17 04:58:53;;;;;;;24.25;17.50;;;;;;;6.40;100.00;101877.84;5049122;28;20025;-77
2023/10/17 05:01:37;;;;;;;19.88;17.73;;;;;;;6.42;100.00;101874.28;5049999;28;20099;-77
2023/10/17 05:04:18;;;;;;;31.40;18.48;;;;;;;6.42;100.00;101876.06;5051724;28;20079;-77
2023/10/17 06:17:40;;;;;;;23.08;19.95;;;;;;;6.36;100.00;101853.59;5048941;28;20024;-78
2023/10/17 06:20:11;;;;;;;27.58;22.00;;;;;;;6.35;100.00;101857.13;5051369;28;20021;-77
2023/10/17 06:26:05;;;;;;;24.75;21.25;;;;;;;6.39;100.00;101865.69;5050411;28;20090;-77
2023/10/17 06:28:29;;;;;;;27.52;21.35;;;;;;;6.40;100.00;101870.00;5041896;28;20379;-78
2023/10/17 06:33:38;;;;;;;28.17;22.35;;;;;;;6.43;100.00;101864.69;5051032;28;20048;-80
2023/10/17 06:36:28;;;;;;;28.92;22.80;;;;;;;6.42;100.00;101865.59;5052242;28;20020;-78
2023/10/17 06:38:53;;;;;;;29.70;22.98;;;;;;;6.44;100.00;101866.38;5050015;28;20037;-78
2023/10/17 06:41:28;;;;;;;28.15;21.17;;;;;;;6.43;100.00;101869.91;5050147;28;20075;-78
2023/10/17 06:44:05;;;;;;;28.05;22.45;;;;;;;6.43;100.00;101870.75;5050099;28;20036;-78
2023/10/17 06:46:30;;;;;;;25.92;22.58;;;;;;;6.47;100.00;101874.09;5047835;28;20045;-78
2023/10/17 06:49:08;;;;;;;25.75;23.00;;;;;;;6.50;100.00;101877.44;5048679;28;20032;-80
2023/10/17 06:51:36;;;;;;;28.67;22.55;;;;;;;6.49;100.00;101878.34;5049085;28;20021;-78
2023/10/17 06:54:12;;;;;;;26.20;22.85;;;;;;;6.51;100.00;101878.28;5041053;28;20025;-78
2023/10/17 06:56:41;;;;;;;26.70;22.55;;;;;;;6.54;100.00;101878.16;5050694;28;20021;-78
2023/10/17 06:59:22;;;;;;;27.02;23.67;;;;;;;6.52;100.00;101880.00;5048826;28;20044;-78
2023/10/17 07:01:55;;;;;;;28.20;23.58;;;;;;;6.54;100.00;101880.78;5047721;28;20025;-78
2023/10/17 07:04:21;;;;;;;27.88;23.50;;;;;;;6.59;100.00;101891.91;5051019;28;20032;-79
2023/10/17 07:06:47;;;;;;;28.50;23.60;;;;;;;6.59;100.00;101884.06;5049846;28;20389;-78
2023/10/17 07:09:19;;;;;;;25.20;22.55;;;;;;;6.59;100.00;101881.44;5046130;28;20025;-78
2023/10/17 07:11:47;;;;;;;24.75;22.05;;;;;;;6.65;100.00;101877.72;5062293;28;20028;-78
2023/10/17 07:14:22;;;;;;;27.00;21.58;;;;;;;6.65;100.00;101870.72;5049353;28;20012;-78
2023/10/17 07:16:57;;;;;;;24.90;21.15;;;;;;;6.65;100.00;101869.88;5049537;28;20368;-78
2023/10/17 07:24:37;;;;;;;25.20;21.77;;;;;;;6.73;100.00;101866.03;5051982;28;20067;-78
2023/10/17 07:27:11;;;;;;;25.13;21.63;;;;;;;6.75;100.00;101858.13;5050436;28;20086;-78
2023/10/17 07:29:37;;;;;;;26.30;21.38;;;;;;;6.77;100.00;101859.75;5047860;28;20025;-77
2023/10/17 07:32:09;;;;;;;25.63;20.75;;;;;;;6.83;100.00;101863.91;5035256;28;20510;-80
2023/10/17 07:34:38;;;;;;;28.20;20.77;;;;;;;6.86;100.00;101877.69;5030440;28;20036;-78
2023/10/17 07:37:22;;;;;;;24.60;19.90;;;;;;;6.93;100.00;101880.06;5029989;28;20021;-78
2023/10/17 07:42:34;;;;;;;21.58;18.73;;;;;;;6.98;100.00;101884.16;5030670;28;20088;-78
2023/10/17 07:45:03;;;;;;;20.35;17.52;;;;;;;6.96;100.00;101875.53;5029984;28;20029;-80
2023/10/17 07:47:41;;;;;;;21.70;18.75;;;;;;;6.98;100.00;101875.47;5035759;28;20053;-78
2023/10/17 07:50:12;;;;;;;21.13;17.48;;;;;;;6.99;100.00;101874.56;5031025;28;20091;-80
2023/10/17 07:52:38;;;;;;;22.40;17.73;;;;;;;6.99;100.00;101866.72;5037281;28;20453;-78
2023/10/17 07:55:35;;;;;;;23.50;18.42;;;;;;;7.02;100.00;101869.19;5051622;28;20036;-76
2023/10/17 07:58:06;;;;;;;20.17;17.30;;;;;;;7.01;100.00;101878.81;5049941;28;20036;-76
2023/10/17 08:00:36;;;;;;;19.58;17.48;;;;;;;7.03;100.00;101881.34;5052807;28;20032;-76
2023/10/17 08:05:38;;;;;;;20.50;17.00;;;;;;;6.98;100.00;101865.00;5050606;28;20040;-76
2023/10/17 08:08:14;;;;;;;35.35;17.58;;;;;;;6.96;100.00;101866.84;5050597;28;20052;-76
2023/10/17 08:10:40;;;;;;;22.95;17.17;;;;;;;6.98;100.00;101858.00;5037418;28;20037;-76
2023/10/17 08:13:09;;;;;;;21.27;17.10;;;;;;;7.05;100.00;101858.59;5032111;28;20076;-76
2023/10/17 08:15:53;;;;;;;18.23;16.33;;;;;;;7.14;100.00;101871.28;5027731;28;20033;-76
2023/10/17 08:18:23;;;;;;;19.67;15.98;;;;;;;7.26;100.00;101867.28;5029037;28;20029;-76
2023/10/17 08:23:25;;;;;;;17.80;15.13;;;;;;;7.49;100.00;101859.25;5030140;28;20120;-77
2023/10/17 08:25:59;;;;;;;17.05;14.30;;;;;;;7.57;100.00;101851.91;5045092;28;20068;-77
2023/10/17 08:28:32;;;;;;;16.88;14.27;;;;;;;7.69;100.00;101861.00;5042505;28;20079;-77
2023/10/17 08:32:14;;;;;;;15.90;12.93;;;;;;;7.84;100.00;101855.88;5033910;28;20073;-77
2023/10/17 08:36:47;;;;;;;15.80;12.80;;;;;;;8.09;100.00;101860.84;5030137;28;20041;-77
2023/10/17 08:42:00;;;;;;;15.23;11.73;;;;;;;8.31;100.00;101852.78;5029725;28;20048;-78
2023/10/17 08:44:29;;;;;;;14.07;10.57;;;;;;;8.44;100.00;101853.09;5030185;28;20059;-80
2023/10/17 08:46:58;;;;;;;13.95;10.77;;;;;;;8.58;100.00;101861.13;5033869;28;20496;-78
2023/10/17 08:49:27;;;;;;;13.55;10.93;;;;;;;8.65;100.00;101856.41;5033569;28;20154;-78
2023/10/17 08:51:56;;;;;;;14.73;10.27;;;;;;;8.76;100.00;101861.97;5030863;28;20100;-80
2023/10/17 08:54:30;;;;;;;12.90;9.77;;;;;;;8.88;100.00;101865.78;5047713;28;20082;-78
2023/10/17 08:57:00;;;;;;;12.18;9.55;;;;;;;9.09;100.00;101864.66;5049505;28;20025;-77
2023/10/17 09:02:15;;;;;;;10.88;8.52;;;;;;;9.34;100.00;101862.47;5050530;28;20471;-78
2023/10/17 09:04:42;;;;;;;9.00;7.72;;;;;;;9.53;98.65;101864.13;5048133;28;20493;-78
2023/10/17 09:07:09;;;;;;;8.73;7.47;;;;;;;9.64;98.13;101861.78;5034635;28;20507;-78
2023/10/17 09:09:37;;;;;;;9.52;7.60;;;;;;;9.70;95.72;101859.66;5049572;28;20033;-78
2023/10/17 09:12:19;;;;;;;11.18;7.40;;;;;;;9.78;94.71;101850.53;5049045;28;20092;-77
2023/10/17 09:14:48;;;;;;;10.02;7.00;;;;;;;9.82;95.99;101850.25;5063215;28;20029;-76
2023/10/17 09:19:52;;;;;;;10.50;7.63;;;;;;;9.93;94.27;101853.16;5047823;28;20454;-77
2023/10/17 09:22:40;;;;;;;9.25;7.32;;;;;;;10.01;94.99;101850.13;5046983;28;20024;-77
2023/10/17 09:25:32;;;;;;;12.32;6.40;;;;;;;10.16;95.47;101849.25;5047868;28;20469;-77
2023/10/17 09:27:57;;;;;;;10.40;7.15;;;;;;;10.26;92.01;101849.59;5040283;28;20041;-77
2023/10/17 09:30:26;;;;;;;12.73;7.18;;;;;;;10.33;89.91;101856.22;5068150;28;20028;-77
2023/10/17 09:32:52;;;;;;;9.57;5.95;;;;;;;10.33;87.13;101856.22;5052215;28;20028;-76
2023/10/17 09:35:18;;;;;;;7.97;5.72;;;;;;;10.39;87.97;101849.75;5067156;28;20021;-80
2023/10/17 09:37:51;;;;;;;7.35;6.00;;;;;;;10.49;88.25;101858.84;5051871;28;20037;-79
2023/10/17 09:40:53;;;;;;;9.75;6.38;;;;;;;10.61;87.88;101856.34;5052487;28;20029;-79
2023/10/17 09:43:11;;;;;;;10.60;6.38;;;;;;;10.75;88.08;101852.03;5044974;28;20034;-77
2023/10/17 09:45:39;;;;;;;7.55;5.53;;;;;;;10.73;82.92;101856.56;5043105;28;20045;-76
2023/10/17 09:48:07;;;;;;;7.70;5.35;;;;;;;10.81;84.26;101863.09;5039222;28;20029;-76
2023/10/17 09:50:37;;;;;;;6.93;5.10;;;;;;;10.89;83.08;101849.47;5032836;28;20026;-77
2023/10/17 09:53:09;;;;;;;8.68;5.47;;;;;;;10.91;83.78;101847.59;5040737;28;20092;-76
2023/10/17 09:55:43;;;;;;;8.25;5.32;;;;;;;11.02;84.47;101846.94;5051267;28;20560;-76
2023/10/17 09:58:10;;;;;;;7.05;5.18;;;;;;;11.05;82.01;101858.13;5052302;28;20490;-76
2023/10/17 10:00:43;;;;;;;7.93;5.30;;;;;;;11.08;82.29;101855.31;5052295;28;20029;-77
2023/10/17 10:03:09;;;;;;;8.45;5.10;;;;;;;11.12;80.18;101859.47;5044203;28;20029;-76
2023/10/17 10:05:36;;;;;;;8.15;4.78;;;;;;;11.20;79.60;101851.09;5034128;28;20032;-74
2023/10/17 10:08:03;;;;;;;6.50;4.60;;;;;;;11.21;79.42;101858.09;5033198;28;20037;-76
2023/10/17 10:10:53;;;;;;;6.30;4.32;;;;;;;11.21;78.94;101858.94;5046089;28;20025;-76
2023/10/17 10:13:22;;;;;;;9.27;5.18;;;;;;;11.18;77.60;101864.34;5051577;28;20020;-77
2023/10/17 10:15:53;;;;;;;8.40;4.72;;;;;;;11.39;77.29;101858.75;5051916;28;20404;-77
2023/10/17 10:18:37;;;;;;;6.45;4.40;;;;;;;11.56;78.73;101855.91;5049690;28;20462;-77
2023/10/17 10:21:03;;;;;;;7.93;4.65;;;;;;;11.79;77.30;101844.81;5047793;28;20403;-77
2023/10/17 10:23:36;;;;;;;12.82;4.40;;;;;;;11.95;75.54;101849.09;5054012;28;20538;-78
2023/10/17 10:26:10;;;;;;;5.53;4.00;;;;;;;11.98;74.17;101848.91;5030018;28;20693;-77
2023/10/17 10:28:40;;;;;;;5.90;4.13;;;;;;;11.96;71.81;101848.16;5031284;28;20045;-77
2023/10/17 10:31:38;;;;;;;6.47;3.80;;;;;;;12.02;76.35;101832.81;5031282;28;20026;-78
2023/10/17 10:34:04;;;;;;;7.28;3.97;;;;;;;11.98;72.55;101841.00;5026610;28;20040;-77
2023/10/17 10:36:33;;;;;;;4.97;4.10;;;;;;;11.83;71.18;101834.91;5031166;28;20109;-77
2023/10/17 10:39:18;;;;;;;8.27;4.25;;;;;;;11.74;73.03;101823.13;5034288;28;20348;-78
2023/10/17 10:42:16;;;;;;;6.28;3.63;;;;;;;11.83;73.82;101822.56;5038082;28;20025;-77
2023/10/17 10:44:41;;;;;;;5.57;3.70;;;;;;;11.70;69.24;101823.44;5018565;28;20037;-77
2023/10/17 10:47:07;;;;;;;6.70;3.90;;;;;;;11.66;68.90;101820.16;5029049;28;20471;-77
2023/10/17 10:49:33;;;;;;;8.20;3.80;;;;;;;11.72;69.89;101822.38;5030249;28;20515;-81
2023/10/17 10:51:59;;;;;;;6.03;3.75;;;;;;;11.86;69.95;101817.09;5030101;28;20025;-78
2023/10/17 10:54:49;;;;;;;4.47;3.83;;;;;;;11.88;69.30;101809.94;5065307;28;20498;-78
2023/10/17 10:57:17;;;;;;;8.52;4.30;;;;;;;11.91;70.42;101812.38;5048986;28;20025;-78
2023/10/17 10:59:49;;;;;;;5.07;4.03;;;;;;;11.97;69.38;101808.50;5049171;28;20021;-78
2023/10/17 11:02:14;;;;;;;6.22;4.03;;;;;;;12.00;70.31;101802.19;5051954;28;20065;-83
2023/10/17 11:04:40;;;;;;;6.80;3.90;;;;;;;12.06;70.54;101807.09;5037707;28;20048;-78
2023/10/17 11:07:23;;;;;;;8.07;3.85;;;;;;;12.00;68.04;101799.53;5031916;28;20052;-82
2023/10/17 11:10:03;;;;;;;5.47;3.40;;;;;;;11.91;69.82;101793.06;5040014;28;20032;-78
2023/10/17 11:12:28;;;;;;;6.30;3.50;;;;;;;11.99;69.33;101790.78;5051741;28;20387;-78
2023/10/17 11:15:11;;;;;;;5.53;3.58;;;;;;;12.11;70.17;101783.88;5050511;28;20032;-82
2023/10/17 11:17:38;;;;;;;5.93;3.33;;;;;;;12.22;67.70;101791.94;5050591;28;20161;-78
2023/10/17 11:20:14;;;;;;;4.68;2.88;;;;;;;12.18;65.42;101801.00;5050560;28;20029;-78
2023/10/17 11:22:40;;;;;;;4.65;3.10;;;;;;;12.28;67.20;101790.69;5042577;28;20029;-78
2023/10/17 11:25:15;;;;;;;4.80;3.17;;;;;;;12.26;65.88;101780.22;5045121;28;20386;-78
2023/10/17 11:27:53;;;;;;;5.35;3.17;;;;;;;12.35;66.05;101769.06;5032529;28;20597;-78
2023/10/17 11:30:20;;;;;;;7.03;3.10;;;;;;;12.41;64.20;101771.31;5030790;28;20080;-79
2023/10/17 11:32:47;;;;;;;6.30;2.95;;;;;;;12.56;65.45;101758.88;5045301;28;20021;-79
2023/10/17 11:35:29;;;;;;;3.65;2.55;;;;;;;12.62;64.07;101755.81;5029814;28;20115;-78
2023/10/17 11:37:58;;;;;;;4.07;3.00;;;;;;;12.75;64.77;101759.28;5029737;28;20276;-79
2023/10/17 11:40:38;;;;;;;5.75;2.78;;;;;;;12.70;63.15;101760.56;5030756;28;20026;-78
2023/10/17 11:43:17;;;;;;;4.15;2.70;;;;;;;12.83;63.56;101751.72;5044063;28;20076;-78
2023/10/17 11:45:43;;;;;;;6.03;2.60;;;;;;;12.84;61.63;101748.13;5029398;28;20041;-78
2023/10/17 11:48:29;;;;;;;7.78;2.92;;;;;;;12.80;62.17;101753.69;5029561;28;20029;-78
2023/10/17 11:51:13;;;;;;;5.60;2.50;;;;;;;12.69;62.02;101759.72;5029780;28;20236;-78
2023/10/17 11:54:04;;;;;;;6.47;2.47;;;;;;;12.66;63.40;101759.09;5041931;28;20025;-75
2023/10/17 11:56:39;;;;;;;4.63;2.78;;;;;;;12.55;61.58;101741.34;5048530;28;20087;-76
2023/10/17 11:59:10;;;;;;;7.38;2.72;;;;;;;12.76;62.76;101754.84;5048917;28;20028;-75
2023/10/17 12:01:36;;;;;;;5.47;2.90;;;;;;;12.84;61.39;101756.03;5045398;28;20028;-76
2023/10/17 12:04:06;;;;;;;5.45;2.83;;;;;;;12.87;60.74;101760.28;5031324;28;20032;-80
2023/10/17 12:06:32;;;;;;;5.90;2.72;;;;;;;12.95;62.19;101759.72;5045180;28;20028;-76
2023/10/17 12:08:58;;;;;;;4.40;3.00;;;;;;;12.78;62.21;101755.59;5030873;28;20031;-76
2023/10/17 12:11:26;;;;;;;4.55;2.85;;;;;;;12.96;63.24;101754.34;5047893;28;20021;-77
2023/10/17 12:13:52;;;;;;;3.80;2.38;;;;;;;12.97;60.56;101742.81;5048328;28;20096;-76
2023/10/17 12:16:23;;;;;;;4.03;2.60;;;;;;;13.02;60.32;101724.00;5050237;28;20034;-79
2023/10/17 12:18:49;;;;;;;4.47;2.50;;;;;;;12.96;60.63;101716.53;5047172;28;20045;-79
2023/10/17 12:21:14;;;;;;;5.10;2.70;;;;;;;13.02;62.11;101714.28;5032581;28;20483;-79
2023/10/17 12:23:41;;;;;;;5.07;3.17;;;;;;;13.15;62.89;101717.75;5030143;28;20039;-79
2023/10/17 12:26:19;;;;;;;4.07;2.50;;;;;;;13.14;62.51;101713.41;5029185;28;20108;-76
2023/10/17 12:28:46;;;;;;;3.30;2.95;;;;;;;13.19;64.84;101697.25;5031162;28;20033;-76
2023/10/17 12:31:16;;;;;;;4.93;3.05;;;;;;;13.31;65.01;101698.19;5044906;28;20017;-76
2023/10/17 12:33:45;;;;;;;5.82;3.40;;;;;;;13.14;64.38;101692.28;5029804;28;20079;-76
2023/10/17 12:36:10;;;;;;;4.82;3.50;;;;;;;13.07;64.52;101684.91;5030363;28;20075;-78
2023/10/17 12:38:38;;;;;;;4.45;3.05;;;;;;;13.05;64.67;101673.59;5058382;28;20027;-78
2023/10/17 12:41:07;;;;;;;5.75;3.58;;;;;;;13.02;64.20;101674.66;5050204;28;20033;-79
2023/10/17 12:43:35;;;;;;;6.55;3.88;;;;;;;13.02;64.99;101664.09;5049481;28;20028;-76
2023/10/17 12:46:01;;;;;;;5.00;3.30;;;;;;;12.94;64.34;101663.78;5047898;28;20443;-78
2023/10/17 12:48:27;;;;;;;4.55;3.58;;;;;;;12.96;64.31;101642.56;5049876;28;20029;-78
2023/10/17 12:50:52;;;;;;;5.38;3.17;;;;;;;12.98;64.51;101646.78;5064012;28;20023;-76
2023/10/17 12:53:18;;;;;;;4.85;3.40;;;;;;;12.96;64.20;101647.84;5049155;28;20024;-78
2023/10/17 12:55:43;;;;;;;7.07;3.33;;;;;;;13.05;65.63;101645.38;5046476;28;20581;-78
2023/10/17 12:58:10;;;;;;;5.63;3.08;;;;;;;13.11;63.52;101642.28;5038359;28;20037;-78
2023/10/17 13:00:41;;;;;;;4.38;3.20;;;;;;;13.26;63.53;101642.19;5051226;28;20024;-78
2023/10/17 13:03:07;;;;;;;3.58;3.22;;;;;;;13.22;63.23;101630.16;5036355;28;20221;-82
2023/10/17 13:05:32;;;;;;;8.55;3.40;;;;;;;13.32;64.78;101633.81;5033556;28;20547;-80
2023/10/17 13:07:57;;;;;;;7.40;3.38;;;;;;;13.32;63.15;101636.44;5032062;28;20033;-80
2023/10/17 13:10:23;;;;;;;5.50;3.47;;;;;;;13.22;62.34;101635.44;5046480;28;20029;-76
2023/10/17 13:12:49;;;;;;;4.72;3.00;;;;;;;13.06;62.81;101631.22;5050763;28;20028;-77
2023/10/17 13:15:17;;;;;;;7.45;3.28;;;;;;;12.95;63.31;101623.22;5052476;28;20090;-77
2023/10/17 13:17:52;;;;;;;5.25;3.38;;;;;;;12.96;63.61;101634.63;5052354;28;20657;-77
2023/10/17 13:20:21;;;;;;;4.68;3.28;;;;;;;12.88;63.53;101624.63;5052117;28;20023;-81
2023/10/17 13:22:47;;;;;;;4.75;3.20;;;;;;;12.95;64.63;101633.78;5068390;28;20021;-76
2023/10/17 13:25:13;;;;;;;11.65;4.13;;;;;;;12.98;64.34;101623.00;5053741;28;20033;-81
2023/10/17 13:27:39;;;;;;;7.10;3.22;;;;;;;12.98;64.56;101622.16;5051166;28;20032;-76
2023/10/17 13:30:07;;;;;;;7.10;3.33;;;;;;;12.84;63.72;101631.91;5052480;28;20482;-77
2023/10/17 13:32:33;;;;;;;4.43;3.55;;;;;;;12.85;64.61;101627.47;5053407;28;20025;-76
2023/10/17 13:34:59;;;;;;;7.05;3.83;;;;;;;12.90;65.71;101617.44;5052457;28;20031;-77
2023/10/17 13:37:28;;;;;;;10.38;3.50;;;;;;;13.05;66.34;101616.31;5052034;28;20083;-77
2023/10/17 13:39:54;;;;;;;4.97;3.65;;;;;;;13.06;64.24;101615.34;5067981;28;20028;-77